Snow/Ice From: 17-12-2018 09:00 Until: 17:00 warning for: Snow/Ice Level: Yellow info button
suomi:
Liikennesää: Ajokeli muuttuu huonoksi päivällä lumisateen vuoksi.

svenska:
Trafikvädret: Väglaget blir dåligt på dagen p.g.a. snöfall.

english:
Traffic weather warning: Bad road conditions are expected at noon and in the afternoon because of snow. 


Thunder radar more information blitzortung!


Löydät sääaseman tiedot myös:

European Weather Network

Finland Weather Exchange

Weather Underground

AWEKAS



Weather Underground säähistoriasivu

Päivittäin yhteenveto Helmikuu 7, 2017 Yksiköt:  Metriset    Englantilaiset   Molemmat
« Edellinen Päivä
Seuraava Päivä »
Päivittäin Viikoittain Kuukausittain Vuosittain Mukautettu
  Korkea: Matala: Keskiarvo:
Lämpötila: -17.8 °C -28.7 °C -26.4 °C
Kastepiste: -17.8 °C -29.6 °C -27.3 °C
Kosteus: Humidity % 82 % 87 %
Tuulen nopeus: 0 km/h 0 km/h 0 km/h
Tuulenpuuska: 0 km/h - -
Tuuli:- - North
Ilmanpaine: 0 hPa 35336.3 hPa -
Sade: 0 mm    
Historical Graphs
 
 
Taulukkotiedot Helmikuu 7, 2017
Aika Lämpötila Kastepiste Ilmanpaine Tuuli Tuulen nopeus Tuulenpuuska Kosteus Sademäärä (tunneittain)
-17.8 °C -17.8 °C 0 hPa Calm     Humidity % 0 mm
00:00 -26.6 °C -27.5 °C 35336.3 hPa Calm     88 % 0 mm
00:15 -26.8 °C -27.6 °C 35346.5 hPa Calm     88 % 0 mm
00:30 -26.8 °C -27.7 °C 35346.5 hPa Calm     88 % 0 mm
00:45 -26.9 °C -27.7 °C 35346.5 hPa Calm     88 % 0 mm
01:00 -26.9 °C -27.8 °C 35356.6 hPa Calm     88 % 0 mm
01:15 -27 °C -27.8 °C 35356.6 hPa Calm     88 % 0 mm
01:30 -27.1 °C -27.9 °C 35356.6 hPa Calm     88 % 0 mm
01:45 -27.1 °C -28.1 °C 35370.2 hPa Calm     87 % 0 mm
02:00 -27.2 °C -28.1 °C 35370.2 hPa Calm     88 % 0 mm
02:15 -27.3 °C -28.1 °C 35370.2 hPa Calm     88 % 0 mm
02:30 -27.3 °C -28.1 °C 35370.2 hPa Calm     88 % 0 mm
02:45 -27.3 °C -28.2 °C 35370.2 hPa Calm     88 % 0 mm
03:00 -27.4 °C -28.2 °C 35380.3 hPa Calm     88 % 0 mm
03:15 -27.5 °C -28.4 °C 35380.3 hPa Calm     87 % 0 mm
03:30 -27.6 °C -28.5 °C 35380.3 hPa Calm     87 % 0 mm
03:45 -27.6 °C -28.6 °C 35380.3 hPa Calm     87 % 0 mm
04:00 -27.7 °C -28.6 °C 35380.3 hPa Calm     87 % 0 mm
04:15 -27.7 °C -28.6 °C 35380.3 hPa Calm     87 % 0 mm
04:30 -27.8 °C -28.7 °C 35380.3 hPa Calm     87 % 0 mm
04:45 -27.9 °C -28.8 °C 35393.9 hPa Calm     87 % 0 mm
05:00 -27.9 °C -28.8 °C 35393.9 hPa Calm     87 % 0 mm
05:15 -28 °C -28.9 °C 35393.9 hPa Calm     87 % 0 mm
05:30 -28.1 °C -28.9 °C 35393.9 hPa Calm     87 % 0 mm
05:45 -28.1 °C -29 °C 35393.9 hPa Calm     87 % 0 mm
06:00 -28.2 °C -29.1 °C 35393.9 hPa Calm     87 % 0 mm
06:15 -28.2 °C -29.2 °C 35393.9 hPa Calm     87 % 0 mm
06:30 -28.3 °C -29.3 °C 35404 hPa Calm     86 % 0 mm
06:45 -28.4 °C -29.3 °C 35404 hPa Calm     87 % 0 mm
07:00 -28.4 °C -29.3 °C 35404 hPa Calm     87 % 0 mm
07:15 -28.4 °C -29.3 °C 35414.2 hPa Calm     87 % 0 mm
07:30 -28.4 °C -29.4 °C 35414.2 hPa Calm     86 % 0 mm
07:45 -28.5 °C -29.5 °C 35414.2 hPa Calm     86 % 0 mm
08:00 -28.6 °C -29.4 °C 35414.2 hPa Calm     87 % 0 mm
08:15 -28.6 °C -29.6 °C 35414.2 hPa Calm     86 % 0 mm
08:30 -28.6 °C -29.6 °C 35427.7 hPa Calm     86 % 0 mm
08:45 -28.7 °C -29.6 °C 35427.7 hPa Calm     87 % 0 mm
09:00 -28.7 °C -29.6 °C 35427.7 hPa Calm     86 % 0 mm
09:15 -28.6 °C -29.5 °C 35427.7 hPa Calm     87 % 0 mm
09:30 -28.5 °C -29.4 °C 35427.7 hPa Calm     87 % 0 mm
09:45 -28.4 °C -29.3 °C 35437.9 hPa Calm     87 % 0 mm
10:00 -28.3 °C -29.1 °C 35437.9 hPa Calm     88 % 0 mm
10:15 -28 °C -28.8 °C 35437.9 hPa Calm     89 % 0 mm
10:30 -27.8 °C -28.6 °C 35437.9 hPa Calm     89 % 0 mm
10:45 -27.4 °C -28.2 °C 35437.9 hPa Calm     90 % 0 mm
11:00 -27.1 °C -27.8 °C 35437.9 hPa Calm     91 % 0 mm
11:15 -26.8 °C -27.4 °C 35451.4 hPa Calm     91 % 0 mm
11:30 -26.4 °C -27.1 °C 35451.4 hPa Calm     91 % 0 mm
11:45 -26.1 °C -26.7 °C 35451.4 hPa Calm     91 % 0 mm
12:00 -25.8 °C -26.6 °C 35451.4 hPa Calm     90 % 0 mm
12:15 -25.5 °C -26.2 °C 35451.4 hPa Calm     90 % 0 mm
12:30 -25.2 °C -26 °C 35451.4 hPa Calm     90 % 0 mm
12:45 -25 °C -25.7 °C 35451.4 hPa Calm     90 % 0 mm
13:00 -24.8 °C -25.6 °C 35451.4 hPa Calm     89 % 0 mm
13:15 -24.6 °C -25.4 °C 35451.4 hPa Calm     89 % 0 mm
13:30 -24.3 °C -25.1 °C 35451.4 hPa Calm     89 % 0 mm
13:45 -24.1 °C -24.8 °C 35451.4 hPa Calm     89 % 0 mm
14:00 -23.7 °C -24.5 °C 35451.4 hPa Calm     89 % 0 mm
14:15 -23.7 °C -24.6 °C 35451.4 hPa Calm     88 % 0 mm
14:30 -23.6 °C -24.4 °C 35451.4 hPa Calm     88 % 0 mm
14:45 -23.3 °C -24.2 °C 35451.4 hPa Calm     88 % 0 mm
15:00 -23.1 °C -24.1 °C 35451.4 hPa Calm     87 % 0 mm
15:15 -22.9 °C -24 °C 35451.4 hPa Calm     86 % 0 mm
15:30 -22.9 °C -24.1 °C 35451.4 hPa Calm     85 % 0 mm
15:45 -22.9 °C -24.2 °C 35461.6 hPa Calm     84 % 0 mm
16:00 -23.1 °C -24.4 °C 35461.6 hPa Calm     83 % 0 mm
16:15 -23.3 °C -24.7 °C 35461.6 hPa Calm     82 % 0 mm
16:30 -23.6 °C -24.9 °C 35461.6 hPa Calm     83 % 0 mm
16:45 -24.1 °C -25.2 °C 35461.6 hPa Calm     85 % 0 mm
17:00 -24.4 °C -25.4 °C 35461.6 hPa Calm     86 % 0 mm
17:15 -24.8 °C -25.7 °C 35461.6 hPa Calm     87 % 0 mm
17:30 -25.1 °C -26 °C 35471.7 hPa Calm     87 % 0 mm
17:45 -25.3 °C -26.2 °C 35471.7 hPa Calm     88 % 0 mm
18:00 -25.4 °C -26.3 °C 35471.7 hPa Calm     88 % 0 mm
18:15 -25.6 °C -26.5 °C 35471.7 hPa Calm     88 % 0 mm
18:30 -25.7 °C -26.5 °C 35471.7 hPa Calm     89 % 0 mm
18:45 -25.8 °C -26.6 °C 35485.3 hPa Calm     89 % 0 mm
19:00 -25.9 °C -26.7 °C 35485.3 hPa Calm     89 % 0 mm
19:15 -26 °C -26.8 °C 35485.3 hPa Calm     88 % 0 mm
19:30 -26.1 °C -26.9 °C 35485.3 hPa Calm     89 % 0 mm
19:45 -26.2 °C -26.9 °C 35485.3 hPa Calm     89 % 0 mm
20:00 -26.2 °C -27 °C 35485.3 hPa Calm     89 % 0 mm
20:15 -26.3 °C -27.2 °C 35485.3 hPa Calm     88 % 0 mm
20:30 -26.4 °C -27.2 °C 35485.3 hPa Calm     89 % 0 mm
20:45 -26.5 °C -27.4 °C 35485.3 hPa Calm     88 % 0 mm
21:00 -26.6 °C -27.4 °C 35485.3 hPa Calm     88 % 0 mm
21:15 -26.7 °C -27.5 °C 35485.3 hPa Calm     88 % 0 mm
21:30 -26.7 °C -27.6 °C 35485.3 hPa Calm     88 % 0 mm
21:45 -26.8 °C -27.7 °C 35485.3 hPa Calm     88 % 0 mm
22:00 -26.9 °C -27.8 °C 35495.4 hPa Calm     88 % 0 mm
22:15 -26.9 °C -27.8 °C 35485.3 hPa Calm     88 % 0 mm
22:30 -27 °C -27.8 °C 35485.3 hPa Calm     88 % 0 mm
22:45 -27.1 °C -27.9 °C 35485.3 hPa Calm     88 % 0 mm
23:00 -27.1 °C -27.9 °C 35495.4 hPa Calm     88 % 0 mm
23:15 -27.1 °C -27.9 °C 35495.4 hPa Calm     88 % 0 mm
23:30 -27 °C -27.8 °C 35495.4 hPa Calm     89 % 0 mm
23:45 -26.8 °C -27.5 °C 35495.4 hPa Calm     90 % 0 mm
Esan sääasema
Terveisin Weather Underground - 2.75 mb

Alkuperäinen skripti  Jim McMurry - jmcmurry@mwt.net Sovitettu myös templatelle  Wim van der Kuil - Leuven-Template.eu

Laitteet joita käytämme:

Sääasema
Davis VP2

Sääasemaohjelma
Cumulus

Sääaseman tietokone
Asus EeePC

Palveluntarjoaja
Suncomet

Davis VP2

Cumulus

Asus EeePC

Suncomet